Mountain Lake, MN (56159)

9:10 PM CST on December 05, 2016 (GMT -0600)
Windom Municipal | | Change Station

Elev 1411 ft 43.91 °N, 95.11 °W | Updated 16 minutes ago

Overcast
Overcast
36 °F
Feels Like 26 °F
N
16
Wind Variable Wind from WSW
Gusts 23 mph

Today
High -- | Low -- °F
--% Chance of Precip.
Yesterday
High -- | Low -- °F
Precip. -- in
Pressure 29.67 in
Visibility 10.0 miles
Clouds Overcast 1700 ft
Windchill 26 °F
Dew Point 30 °F
Humidity 81%
Rainfall 0.00 in
Snow Depth Not available.
7:39 AM 4:42 PM
Waxing Crescent, 37% visible
METAR KMWM 060254Z AUTO 25014G20KT 10SM OVC017 02/M01 A2967 RMK AO2
Pressure 29.67 in
Visibility 10.0 miles
Clouds Overcast 1700 ft
Windchill 26 °F
Dew Point 30 °F
Humidity 81%
Rainfall 0.00 in
Snow Depth Not available.
7:39 AM 4:42 PM
Waxing Crescent, 37% visible
METAR KMWM 060254Z AUTO 25014G20KT 10SM OVC017 02/M01 A2967 RMK AO2

10-Day Weather Forecast

Almanac

Astronomy

Dec. 05, 2016 Rise Set
Actual Time
Civil Twilight
Nautical Twilight
Astronomical Twilight
Moon
Length of Visible Light
Length of Day
Tomorrow will be .
, % of the Moon is Illuminated

Today's Extremes

State Highs State Lows

Community

WunderPhotos

Upload Photos

1,955,914 photos uploaded!

WunderBlog® & News

Nearby

Air Quality

  Air Quality AQ Index Pollutant
Not available.

Snow Depth

Station Depth Elevation

Earthquake Activity

City Distance Mag. Time & Date
Minimum magnitude displayed is 2.5.

Coastal Water Temperatures

Place Temperature

Stations

Nearby Weather Stations

Station Location Temp. Windchill Dew Point Humidity Wind Precip. Elev Updated Type
                   

Watches & Warnings

There are currently no watches in effect.